Time;durP1;ratioP1;P1;durP2;ratioP2;P2;SDS_P1;SDS_P2;PMS_P1;PMS_P2;Temp;Humidity;BMP_temperature;BMP_pressure;BME280_temperature;BME280_humidity;BME280_pressure;Samples;Min_cycle;Max_cycle;Signal;HPM_P1;HPM_P2
2024/04/11 00:01:22;;;;;;;;;;;19.00;50.40;;;;;;5336248;26;81855;-39
2024/04/11 00:03:47;;;;;;;;;;;19.00;50.50;;;;;;5306866;26;80119;-39
2024/04/11 00:06:13;;;;;;;;;;;19.00;50.40;;;;;;5330594;26;80825;-39
2024/04/11 00:08:39;;;;;;;;;;;18.90;50.30;;;;;;5315969;26;81979;-39
2024/04/11 00:11:04;;;;;;;;;;;18.90;50.40;;;;;;5329402;26;81656;-39
2024/04/11 00:13:30;;;;;;;;;;;18.90;50.40;;;;;;5323379;26;81651;-39
2024/04/11 00:15:56;;;;;;;;;;;18.90;50.40;;;;;;5328577;26;80956;-39
2024/04/11 00:18:23;;;;;;;;;;;18.90;50.40;;;;;;5315297;26;80709;-39
2024/04/11 00:20:49;;;;;;;;;;;18.80;50.40;;;;;;5310364;26;81900;-39
2024/04/11 00:23:14;;;;;;;;;;;18.80;50.40;;;;;;5322961;26;80396;-39
2024/04/11 00:25:42;;;;;;;;;;;18.80;50.30;;;;;;5308887;26;80963;-39
2024/04/11 00:28:09;;;;;;;;;;;18.80;50.30;;;;;;5331352;26;80166;-39
2024/04/11 00:30:35;;;;;;;;;;;18.70;50.30;;;;;;5330590;26;80612;-40
2024/04/11 00:33:01;;;;;;;;;;;18.70;50.30;;;;;;5316218;26;81738;-39
2024/04/11 00:35:27;;;;;;;;;;;18.70;50.30;;;;;;5330902;26;81789;-38
2024/04/11 00:37:53;;;;;;;;;;;18.70;50.40;;;;;;5312249;26;80452;-39
2024/04/11 00:40:20;;;;;;;;;;;18.70;50.30;;;;;;5320651;26;81177;-39
2024/04/11 00:42:45;;;;;;;;;;;18.60;50.30;;;;;;5326145;26;80870;-39
2024/04/11 00:45:12;;;;;;;;;;;18.60;50.40;;;;;;5317672;26;80905;-39
2024/04/11 00:47:40;;;;;;;;;;;18.60;50.40;;;;;;5328992;26;81094;-39
2024/04/11 00:50:06;;;;;;;;;;;18.60;50.30;;;;;;5304263;26;80356;-39
2024/04/11 00:52:33;;;;;;;;;;;18.60;50.50;;;;;;5329391;26;81724;-39
2024/04/11 00:54:59;;;;;;;;;;;18.60;50.50;;;;;;5324619;26;81675;-38
2024/04/11 00:57:25;;;;;;;;;;;18.60;50.30;;;;;;5322956;26;80716;-38
2024/04/11 00:59:50;;;;;;;;;;;18.60;50.40;;;;;;5335223;26;81176;-39
2024/04/11 01:02:16;;;;;;;;;;;18.60;50.50;;;;;;5313386;26;80385;-39
2024/04/11 01:04:42;;;;;;;;;;;18.50;50.40;;;;;;5331866;26;80915;-39
2024/04/11 01:07:10;;;;;;;;;;;18.50;50.40;;;;;;5303212;26;81871;-39
2024/04/11 01:09:41;;;;;;;;;;;18.50;50.40;;;;;;5328301;26;80239;-39
2024/04/11 01:12:07;;;;;;;;;;;18.50;50.40;;;;;;5329332;26;81553;-39
2024/04/11 01:14:33;;;;;;;;;;;18.50;50.50;;;;;;5317047;26;81502;-39
2024/04/11 01:16:58;;;;;;;;;;;18.40;50.40;;;;;;5334869;26;80614;-39
2024/04/11 01:19:24;;;;;;;;;;;18.40;50.60;;;;;;5317126;26;81159;-39
2024/04/11 01:21:50;;;;;;;;;;;18.40;50.60;;;;;;5321574;26;81285;-41
2024/04/11 01:24:15;;;;;;;;;;;18.40;50.40;;;;;;5317479;26;81867;-39
2024/04/11 01:26:41;;;;;;;;;;;18.40;50.40;;;;;;5322062;26;81305;-39
2024/04/11 01:29:07;;;;;;;;;;;18.40;50.40;;;;;;5338865;26;80406;-39
2024/04/11 01:31:37;;;;;;;;;;;18.40;50.40;;;;;;5313251;26;82075;-39
2024/04/11 01:34:04;;;;;;;;;;;18.30;50.50;;;;;;5333620;26;81127;-39
2024/04/11 01:36:30;;;;;;;;;;;18.30;50.50;;;;;;5320228;26;80330;-39
2024/04/11 01:38:56;;;;;;;;;;;18.30;50.40;;;;;;5328185;26;80951;-39
2024/04/11 01:41:22;;;;;;;;;;;18.30;50.50;;;;;;5312798;26;80143;-39
2024/04/11 01:43:49;;;;;;;;;;;18.30;50.50;;;;;;5320058;26;80919;-40
2024/04/11 01:46:18;;;;;;;;;;;18.30;50.50;;;;;;5329479;26;81869;-39
2024/04/11 01:48:44;;;;;;;;;;;18.20;50.40;;;;;;5317919;26;82675;-39
2024/04/11 01:51:09;;;;;;;;;;;18.20;50.60;;;;;;5331893;26;82648;-39
2024/04/11 01:53:37;;;;;;;;;;;18.20;50.50;;;;;;5316845;26;81985;-39
2024/04/11 01:56:04;;;;;;;;;;;18.20;50.50;;;;;;5316692;26;81374;-39
2024/04/11 01:58:29;;;;;;;;;;;18.10;50.50;;;;;;5335087;26;80821;-39
2024/04/11 02:01:02;;;;;;;;;;;18.10;50.40;;;;;;5306631;26;80842;-39
2024/04/11 02:03:33;;;;;;;;;;;18.10;50.60;;;;;;5335653;26;80633;-39
2024/04/11 02:06:03;;;;;;;;;;;18.10;50.50;;;;;;5306353;26;81189;-39
2024/04/11 02:08:30;;;;;;;;;;;18.10;50.50;;;;;;5320869;26;80452;-39
2024/04/11 02:10:55;;;;;;;;;;;18.00;50.70;;;;;;5334555;26;80299;-38
2024/04/11 02:13:21;;;;;;;;;;;18.00;50.60;;;;;;5314672;26;83062;-39
2024/04/11 02:15:47;;;;;;;;;;;18.00;50.60;;;;;;5333026;26;80884;-39
2024/04/11 02:18:13;;;;;;;;;;;18.00;50.60;;;;;;5305906;26;81738;-39
2024/04/11 02:20:38;;;;;;;;;;;18.00;50.60;;;;;;5334387;26;81923;-39
2024/04/11 02:23:04;;;;;;;;;;;18.00;50.50;;;;;;5322085;26;80269;-39
2024/04/11 02:25:31;;;;;;;;;;;18.00;51.00;;;;;;5321980;26;81637;-39
2024/04/11 02:27:58;;;;;;;;;;;17.90;50.60;;;;;;5344050;26;80876;-39
2024/04/11 02:30:23;;;;;;;;;;;17.90;50.70;;;;;;5304144;26;80633;-39
2024/04/11 02:32:49;;;;;;;;;;;17.90;50.60;;;;;;5324412;26;82021;-39
2024/04/11 02:35:15;;;;;;;;;;;17.90;50.60;;;;;;5316614;26;80405;-39
2024/04/11 02:37:40;;;;;;;;;;;17.80;50.60;;;;;;5318726;26;81263;-39
2024/04/11 02:40:09;;;;;;;;;;;17.80;50.60;;;;;;5321296;26;81439;-39
2024/04/11 02:42:37;;;;;;;;;;;17.80;50.70;;;;;;5320319;26;80313;-39
2024/04/11 02:45:03;;;;;;;;;;;17.80;50.70;;;;;;5326147;26;80264;-39
2024/04/11 02:47:30;;;;;;;;;;;17.80;50.60;;;;;;5323651;26;82946;-39
2024/04/11 02:49:56;;;;;;;;;;;17.70;50.70;;;;;;5319494;26;81676;-39
2024/04/11 02:52:23;;;;;;;;;;;17.70;50.60;;;;;;5323607;26;81236;-39
2024/04/11 02:54:49;;;;;;;;;;;17.70;50.60;;;;;;5320501;26;79908;-39
2024/04/11 02:57:16;;;;;;;;;;;17.70;50.60;;;;;;5340381;26;80918;-39
2024/04/11 02:59:43;;;;;;;;;;;17.70;50.70;;;;;;5311436;26;81933;-39
2024/04/11 03:02:10;;;;;;;;;;;17.70;50.60;;;;;;5316912;26;81639;-39
2024/04/11 03:04:35;;;;;;;;;;;17.60;50.70;;;;;;5319393;26;81842;-39
2024/04/11 03:07:01;;;;;;;;;;;17.60;50.60;;;;;;5312987;26;80807;-40
2024/04/11 03:09:27;;;;;;;;;;;17.60;50.60;;;;;;5326864;26;81402;-39
2024/04/11 03:11:52;;;;;;;;;;;17.60;50.60;;;;;;5312664;26;82622;-39
2024/04/11 03:14:18;;;;;;;;;;;17.60;50.60;;;;;;5332705;26;80316;-39
2024/04/11 03:16:43;;;;;;;;;;;17.60;50.70;;;;;;5321434;26;81566;-39
2024/04/11 03:19:09;;;;;;;;;;;17.50;50.80;;;;;;5312592;26;81207;-39
2024/04/11 03:21:34;;;;;;;;;;;17.50;50.70;;;;;;5325053;26;80386;-39
2024/04/11 03:24:00;;;;;;;;;;;17.50;50.70;;;;;;5315455;26;81663;-39
2024/04/11 03:26:26;;;;;;;;;;;17.50;50.60;;;;;;5330713;26;81889;-38
2024/04/11 03:28:52;;;;;;;;;;;17.40;50.60;;;;;;5317555;26;80451;-39
2024/04/11 03:31:19;;;;;;;;;;;17.40;50.60;;;;;;5332648;26;81570;-39
2024/04/11 03:33:50;;;;;;;;;;;17.50;50.70;;;;;;5329898;26;80446;-39
2024/04/11 03:36:16;;;;;;;;;;;17.40;50.80;;;;;;5319033;26;81654;-39
2024/04/11 03:38:41;;;;;;;;;;;17.40;50.80;;;;;;5327447;26;80726;-39
2024/04/11 03:41:14;;;;;;;;;;;17.40;50.70;;;;;;5308724;26;80343;-39
2024/04/11 03:43:41;;;;;;;;;;;17.40;50.80;;;;;;5329863;26;81596;-39
2024/04/11 03:46:07;;;;;;;;;;;17.30;50.70;;;;;;5315796;26;81157;-39
2024/04/11 03:48:33;;;;;;;;;;;17.30;50.70;;;;;;5319408;26;80942;-39
2024/04/11 03:51:13;;;;;;;;;;;17.30;50.80;;;;;;5331878;26;81864;-38
2024/04/11 03:53:43;;;;;;;;;;;17.20;50.70;;;;;;5320916;26;80658;-39
2024/04/11 03:56:09;;;;;;;;;;;17.20;50.80;;;;;;5331024;26;81530;-39
2024/04/11 03:58:37;;;;;;;;;;;17.20;50.70;;;;;;5308020;26;81066;-39
2024/04/11 04:01:15;;;;;;;;;;;17.20;50.80;;;;;;5319178;26;81243;-39
2024/04/11 04:03:42;;;;;;;;;;;17.10;50.80;;;;;;5323544;26;81715;-39
2024/04/11 04:06:12;;;;;;;;;;;17.10;50.90;;;;;;5321255;26;81355;-39
2024/04/11 04:08:41;;;;;;;;;;;17.10;50.90;;;;;;5332629;26;79788;-39
2024/04/11 04:11:07;;;;;;;;;;;17.10;50.70;;;;;;5315100;26;80971;-39
2024/04/11 04:13:33;;;;;;;;;;;17.10;50.90;;;;;;5337996;26;82355;-39
2024/04/11 04:15:59;;;;;;;;;;;17.10;50.80;;;;;;5312902;26;81201;-38
2024/04/11 04:18:25;;;;;;;;;;;17.10;50.80;;;;;;5322571;26;81936;-38
2024/04/11 04:20:57;;;;;;;;;;;17.10;50.70;;;;;;5323257;26;80285;-39
2024/04/11 04:23:23;;;;;;;;;;;17.10;50.90;;;;;;5306624;26;81966;-39
2024/04/11 04:25:59;;;;;;;;;;;17.00;50.80;;;;;;5330547;26;80912;-39
2024/04/11 04:28:26;;;;;;;;;;;17.00;50.80;;;;;;5304391;26;80825;-38
2024/04/11 04:30:52;;;;;;;;;;;17.00;50.80;;;;;;5330023;26;81661;-39
2024/04/11 04:33:17;;;;;;;;;;;17.00;50.70;;;;;;5332138;26;81552;-39
2024/04/11 04:35:43;;;;;;;;;;;16.90;50.80;;;;;;5320008;26;80408;-39
2024/04/11 04:38:09;;;;;;;;;;;16.90;50.80;;;;;;5340151;26;81992;-39
2024/04/11 04:40:35;;;;;;;;;;;16.90;50.80;;;;;;5318119;26;81287;-39
2024/04/11 04:43:02;;;;;;;;;;;16.90;50.80;;;;;;5326472;26;82595;-39
2024/04/11 04:45:27;;;;;;;;;;;16.80;50.80;;;;;;5314010;26;81879;-38
2024/04/11 04:47:53;;;;;;;;;;;16.80;50.90;;;;;;5325554;26;80372;-39
2024/04/11 04:50:19;;;;;;;;;;;16.80;50.90;;;;;;5324694;26;80682;-39
2024/04/11 04:52:44;;;;;;;;;;;16.80;50.90;;;;;;5309341;26;80590;-39
2024/04/11 04:55:10;;;;;;;;;;;16.80;50.90;;;;;;5330388;26;80834;-39
2024/04/11 04:57:36;;;;;;;;;;;16.80;50.90;;;;;;5313788;26;80630;-39
2024/04/11 05:00:03;;;;;;;;;;;16.70;50.90;;;;;;5322126;26;81088;-39
2024/04/11 05:02:31;;;;;;;;;;;16.70;50.80;;;;;;5312340;26;81571;-38
2024/04/11 05:04:57;;;;;;;;;;;16.70;50.90;;;;;;5317095;26;83306;-39
2024/04/11 05:07:24;;;;;;;;;;;16.70;50.90;;;;;;5329597;26;80444;-39
2024/04/11 05:09:49;;;;;;;;;;;16.70;51.00;;;;;;5303692;26;82325;-39
2024/04/11 05:12:15;;;;;;;;;;;16.70;51.00;;;;;;5329314;26;82000;-39
2024/04/11 05:14:45;;;;;;;;;;;16.60;50.70;;;;;;5320406;26;80397;-39
2024/04/11 05:17:11;;;;;;;;;;;16.70;50.80;;;;;;5327234;26;81709;-38
2024/04/11 05:19:37;;;;;;;;;;;16.60;51.40;;;;;;5316864;26;81012;-39
2024/04/11 05:22:04;;;;;;;;;;;16.70;50.80;;;;;;5312053;26;81024;-38
2024/04/11 05:24:30;;;;;;;;;;;16.60;50.80;;;;;;5325399;26;82005;-38
2024/04/11 05:26:55;;;;;;;;;;;16.60;50.80;;;;;;5315280;26;80418;-38
2024/04/11 05:29:21;;;;;;;;;;;16.60;50.80;;;;;;5327897;26;81496;-39
2024/04/11 05:31:47;;;;;;;;;;;16.60;50.90;;;;;;5320544;26;80956;-39
2024/04/11 05:34:20;;;;;;;;;;;16.60;50.90;;;;;;5302375;26;80897;-39
2024/04/11 05:36:45;;;;;;;;;;;16.60;50.90;;;;;;5327783;26;81752;-39
2024/04/11 05:39:14;;;;;;;;;;;16.60;50.90;;;;;;5310514;26;82084;-39
2024/04/11 05:41:43;;;;;;;;;;;16.50;51.00;;;;;;5326258;26;80491;-39
2024/04/11 05:44:10;;;;;;;;;;;16.50;51.60;;;;;;5317188;26;81085;-39
2024/04/11 05:46:36;;;;;;;;;;;16.60;51.10;;;;;;5310142;26;79596;-39
2024/04/11 05:49:04;;;;;;;;;;;16.60;51.00;;;;;;5332665;26;80660;-39
2024/04/11 05:51:30;;;;;;;;;;;16.50;51.00;;;;;;5322615;26;82183;-39
2024/04/11 05:53:55;;;;;;;;;;;16.60;51.10;;;;;;5329974;26;81279;-39
2024/04/11 05:56:21;;;;;;;;;;;16.50;51.10;;;;;;5313518;26;82622;-39
2024/04/11 05:58:49;;;;;;;;;;;16.50;51.20;;;;;;5319590;26;81909;-39
2024/04/11 06:01:15;;;;;;;;;;;16.50;51.10;;;;;;5326324;26;81226;-39
2024/04/11 06:03:46;;;;;;;;;;;16.50;51.10;;;;;;5308446;26;81316;-39
2024/04/11 06:06:13;;;;;;;;;;;16.50;51.30;;;;;;5329177;26;80309;-38
2024/04/11 06:08:42;;;;;;;;;;;16.50;51.30;;;;;;5305758;26;80696;-38
2024/04/11 06:11:09;;;;;;;;;;;16.50;51.30;;;;;;5317251;26;80416;-38
2024/04/11 06:13:36;;;;;;;;;;;16.50;51.40;;;;;;5324463;26;80298;-38
2024/04/11 06:16:01;;;;;;;;;;;16.50;51.40;;;;;;5330194;26;81711;-38
2024/04/11 06:18:30;;;;;;;;;;;16.50;51.50;;;;;;5317516;26;83111;-39
2024/04/11 06:20:55;;;;;;;;;;;16.50;51.40;;;;;;5315072;26;80332;-38
2024/04/11 06:23:21;;;;;;;;;;;16.50;51.50;;;;;;5328730;26;80374;-41
2024/04/11 06:25:47;;;;;;;;;;;16.50;51.50;;;;;;5311670;26;82314;-39
2024/04/11 06:28:15;;;;;;;;;;;16.50;51.50;;;;;;5328901;26;81231;-39
2024/04/11 06:30:41;;;;;;;;;;;16.50;51.50;;;;;;5334790;26;82127;-39
2024/04/11 06:33:11;;;;;;;;;;;16.50;51.60;;;;;;5319586;26;81729;-39
2024/04/11 06:35:36;;;;;;;;;;;16.50;51.60;;;;;;5328105;26;81839;-38
2024/04/11 06:38:07;;;;;;;;;;;16.50;51.60;;;;;;5311369;26;82047;-38
2024/04/11 06:40:32;;;;;;;;;;;16.50;51.60;;;;;;5331096;26;80492;-38
2024/04/11 06:43:03;;;;;;;;;;;16.60;51.70;;;;;;5302702;26;82032;-38
2024/04/11 06:45:30;;;;;;;;;;;16.50;51.60;;;;;;5323099;26;82010;-38
2024/04/11 06:47:55;;;;;;;;;;;16.50;51.60;;;;;;5331997;26;80710;-38
2024/04/11 06:50:21;;;;;;;;;;;16.50;51.60;;;;;;5306539;26;81302;-39
2024/04/11 06:52:47;;;;;;;;;;;16.50;51.60;;;;;;5329088;26;80323;-39
2024/04/11 06:55:14;;;;;;;;;;;16.50;51.60;;;;;;5314469;26;81390;-39
2024/04/11 06:57:41;;;;;;;;;;;16.60;51.70;;;;;;5327605;26;82193;-38
2024/04/11 07:00:14;;;;;;;;;;;16.50;51.70;;;;;;5328496;26;79728;-38
2024/04/11 07:02:44;;;;;;;;;;;16.50;51.70;;;;;;5317185;26;81182;-39
2024/04/11 07:05:13;;;;;;;;;;;16.50;51.70;;;;;;5333024;26;81938;-38
2024/04/11 07:07:41;;;;;;;;;;;16.50;51.70;;;;;;5315657;26;81762;-38
2024/04/11 07:10:15;;;;;;;;;;;16.50;51.70;;;;;;5320326;26;80286;-38
2024/04/11 07:12:46;;;;;;;;;;;16.60;51.70;;;;;;5316100;26;80259;-39
2024/04/11 07:15:18;;;;;;;;;;;16.60;51.80;;;;;;5315764;26;81647;-38
2024/04/11 07:17:56;;;;;;;;;;;16.50;51.70;;;;;;5329819;26;82075;-38
2024/04/11 07:20:25;;;;;;;;;;;16.50;51.80;;;;;;5308611;26;80313;-39
2024/04/11 07:22:54;;;;;;;;;;;16.50;51.80;;;;;;5333642;26;80257;-39
2024/04/11 07:25:22;;;;;;;;;;;16.50;51.80;;;;;;5309055;26;81688;-39
2024/04/11 07:27:49;;;;;;;;;;;16.50;51.80;;;;;;5330716;26;81309;-39
2024/04/11 07:30:15;;;;;;;;;;;16.50;51.90;;;;;;5330466;26;81657;-39
2024/04/11 07:32:41;;;;;;;;;;;16.50;52.00;;;;;;5318130;26;81405;-38
2024/04/11 07:35:06;;;;;;;;;;;16.50;52.00;;;;;;5342988;26;82672;-38
2024/04/11 07:37:32;;;;;;;;;;;16.50;52.00;;;;;;5306020;26;82121;-39
2024/04/11 07:40:00;;;;;;;;;;;16.50;52.00;;;;;;5332285;26;80847;-39
2024/04/11 07:42:48;;;;;;;;;;;16.50;52.00;;;;;;5315659;26;81634;-39
2024/04/11 07:45:17;;;;;;;;;;;16.50;51.90;;;;;;5321874;26;81814;-38
2024/04/11 07:47:43;;;;;;;;;;;16.50;52.00;;;;;;5324826;26;80871;-38
2024/04/11 07:50:11;;;;;;;;;;;16.50;52.00;;;;;;5320622;26;80763;-38
2024/04/11 07:52:37;;;;;;;;;;;16.50;51.90;;;;;;5331977;26;80621;-37
2024/04/11 07:55:03;;;;;;;;;;;16.60;51.90;;;;;;5317929;26;81655;-38
2024/04/11 07:57:29;;;;;;;;;;;16.60;51.90;;;;;;5323677;26;83507;-38
2024/04/11 07:59:55;;;;;;;;;;;16.50;51.80;;;;;;5326300;26;81109;-38
2024/04/11 08:02:21;;;;;;;;;;;16.50;51.80;;;;;;5321355;26;80737;-38
2024/04/11 08:04:47;;;;;;;;;;;16.60;51.80;;;;;;5333579;26;81133;-38
2024/04/11 08:07:12;;;;;;;;;;;16.60;51.80;;;;;;5311706;26;80364;-39
2024/04/11 08:09:44;;;;;;;;;;;16.50;51.80;;;;;;5331465;26;81970;-38
2024/04/11 08:12:10;;;;;;;;;;;16.50;51.80;;;;;;5315944;26;82284;-39
2024/04/11 08:14:35;;;;;;;;;;;16.60;51.80;;;;;;5323752;26;81958;-39
2024/04/11 08:17:04;;;;;;;;;;;16.60;51.90;;;;;;5326843;26;80825;-38
2024/04/11 08:19:30;;;;;;;;;;;16.60;51.80;;;;;;5324598;26;80475;-38
2024/04/11 08:21:56;;;;;;;;;;;16.60;51.70;;;;;;5336792;26;82148;-38
2024/04/11 08:24:21;;;;;;;;;;;16.60;51.70;;;;;;5303541;26;82073;-39
2024/04/11 08:26:47;;;;;;;;;;;16.60;51.70;;;;;;5327117;26;80388;-39
2024/04/11 08:29:13;;;;;;;;;;;16.60;51.60;;;;;;5317474;26;80538;-38
2024/04/11 08:31:39;;;;;;;;;;;16.60;51.70;;;;;;5316887;26;82118;-38
2024/04/11 08:34:05;;;;;;;;;;;16.60;51.60;;;;;;5331271;26;80400;-39
2024/04/11 08:36:31;;;;;;;;;;;16.60;51.50;;;;;;5302904;26;82403;-39
2024/04/11 08:38:57;;;;;;;;;;;16.60;51.60;;;;;;5320100;26;79674;-38
2024/04/11 08:41:23;;;;;;;;;;;16.60;51.40;;;;;;5317677;26;81873;-39
2024/04/11 08:43:50;;;;;;;;;;;16.60;51.40;;;;;;5322938;26;82549;-38
2024/04/11 08:46:16;;;;;;;;;;;16.60;50.90;;;;;;5338617;26;82064;-38
2024/04/11 08:48:42;;;;;;;;;;;16.60;50.90;;;;;;5312735;26;81334;-38
2024/04/11 08:51:19;;;;;;;;;;;16.60;50.70;;;;;;5334787;26;80868;-39
2024/04/11 08:53:46;;;;;;;;;;;16.60;51.00;;;;;;5302408;26;80408;-38
2024/04/11 08:56:13;;;;;;;;;;;16.60;51.00;;;;;;5323321;26;80292;-38
2024/04/11 08:58:41;;;;;;;;;;;16.60;50.90;;;;;;5325298;26;80830;-38
2024/04/11 09:01:08;;;;;;;;;;;16.70;51.00;;;;;;5318490;26;80754;-39
2024/04/11 09:03:35;;;;;;;;;;;16.70;50.90;;;;;;5339012;26;80255;-38
2024/04/11 09:06:01;;;;;;;;;;;16.70;50.80;;;;;;5308805;26;81434;-38
2024/04/11 09:08:28;;;;;;;;;;;16.70;50.60;;;;;;5323329;26;80330;-38
2024/04/11 09:10:54;;;;;;;;;;;16.70;50.70;;;;;;5324752;26;82986;-39
2024/04/11 09:13:23;;;;;;;;;;;16.70;50.50;;;;;;5313069;26;81993;-39
2024/04/11 09:16:01;;;;;;;;;;;16.70;50.10;;;;;;5325813;26;81728;-38
2024/04/11 09:18:27;;;;;;;;;;;16.70;50.10;;;;;;5314895;26;81188;-38
2024/04/11 09:21:05;;;;;;;;;;;16.70;50.60;;;;;;5341606;26;80245;-39
2024/04/11 09:23:34;;;;;;;;;;;16.80;50.20;;;;;;5301562;26;81960;-39
2024/04/11 09:26:00;;;;;;;;;;;16.80;50.00;;;;;;5321294;26;80736;-38
2024/04/11 09:28:28;;;;;;;;;;;16.80;49.60;;;;;;5317459;26;81741;-39
2024/04/11 09:30:54;;;;;;;;;;;16.80;48.80;;;;;;5309439;26;81162;-39
2024/04/11 09:33:21;;;;;;;;;;;16.80;48.60;;;;;;5323323;26;80313;-38
2024/04/11 09:35:52;;;;;;;;;;;16.80;46.90;;;;;;5299648;26;81179;-38
2024/04/11 09:38:21;;;;;;;;;;;16.80;49.00;;;;;;5327244;26;81119;-39
2024/04/11 09:40:53;;;;;;;;;;;16.80;47.70;;;;;;5313666;26;80435;-38
2024/04/11 09:43:27;;;;;;;;;;;16.90;47.80;;;;;;5320696;26;81234;-38
2024/04/11 09:45:56;;;;;;;;;;;16.90;47.90;;;;;;5332632;26;80357;-39
2024/04/11 09:48:24;;;;;;;;;;;16.90;47.80;;;;;;5317110;26;80505;-38
2024/04/11 09:50:54;;;;;;;;;;;16.90;46.70;;;;;;5332566;26;81098;-38
2024/04/11 09:53:26;;;;;;;;;;;16.90;47.20;;;;;;5313238;26;80415;-38
2024/04/11 09:55:56;;;;;;;;;;;16.90;48.20;;;;;;5334160;26;81063;-39
2024/04/11 09:58:23;;;;;;;;;;;16.90;48.40;;;;;;5317554;26;82348;-39
2024/04/11 10:01:12;;;;;;;;;;;17.00;47.00;;;;;;5330154;26;81329;-39
2024/04/11 10:03:40;;;;;;;;;;;16.90;47.20;;;;;;5326823;26;82088;-39
2024/04/11 10:06:13;;;;;;;;;;;17.00;45.90;;;;;;5321355;26;80484;-39
2024/04/11 10:08:42;;;;;;;;;;;17.00;47.10;;;;;;5338014;26;82065;-39
2024/04/11 10:11:10;;;;;;;;;;;17.00;45.90;;;;;;5314563;26;81959;-39
2024/04/11 10:13:40;;;;;;;;;;;17.00;47.00;;;;;;5335246;26;80403;-39
2024/04/11 10:16:14;;;;;;;;;;;17.00;47.30;;;;;;5318796;26;81555;-38
2024/04/11 10:18:45;;;;;;;;;;;17.00;44.80;;;;;;5320105;26;80285;-39
2024/04/11 10:21:12;;;;;;;;;;;17.10;45.40;;;;;;5329277;26;81009;-39
2024/04/11 10:23:38;;;;;;;;;;;17.10;46.30;;;;;;5316466;26;80883;-38
2024/04/11 10:26:06;;;;;;;;;;;17.10;45.90;;;;;;5337437;26;81394;-38
2024/04/11 10:28:41;;;;;;;;;;;17.10;45.20;;;;;;5321640;26;81347;-38
2024/04/11 10:31:11;;;;;;;;;;;17.10;46.10;;;;;;5328059;26;82109;-39
2024/04/11 10:33:47;;;;;;;;;;;17.10;44.80;;;;;;5315412;26;80349;-39
2024/04/11 10:36:13;;;;;;;;;;;17.20;44.80;;;;;;5333656;26;80417;-39
2024/04/11 10:38:41;;;;;;;;;;;17.20;46.30;;;;;;5337576;26;82059;-39
2024/04/11 10:41:08;;;;;;;;;;;17.20;46.70;;;;;;5313002;26;81214;-39
2024/04/11 10:43:36;;;;;;;;;;;17.20;45.50;;;;;;5328691;26;81911;-38
2024/04/11 10:46:05;;;;;;;;;;;17.20;46.20;;;;;;5304724;26;80978;-39
2024/04/11 10:48:31;;;;;;;;;;;17.20;45.80;;;;;;5337531;26;82010;-38
2024/04/11 10:51:00;;;;;;;;;;;17.30;43.20;;;;;;5319596;26;81948;-38
2024/04/11 10:53:25;;;;;;;;;;;17.30;45.70;;;;;;5313494;26;80431;-39
2024/04/11 10:55:55;;;;;;;;;;;17.30;44.80;;;;;;5337462;26;81235;-39
2024/04/11 10:58:28;;;;;;;;;;;17.30;45.60;;;;;;5307449;26;82077;-38
2024/04/11 11:06:12;;;;;;;;;;;17.40;45.50;;;;;;5323120;26;80712;-39
2024/04/11 11:08:42;;;;;;;;;;;17.40;45.10;;;;;;5322311;26;80079;-39
2024/04/11 11:11:11;;;;;;;;;;;17.40;45.20;;;;;;5325891;26;82176;-38
2024/04/11 11:13:40;;;;;;;;;;;17.50;43.80;;;;;;5334468;26;80449;-39
2024/04/11 11:16:07;;;;;;;;;;;17.40;45.20;;;;;;5314308;26;81682;-39
2024/04/11 11:18:39;;;;;;;;;;;17.50;45.30;;;;;;5340139;26;82077;-38
2024/04/11 11:21:07;;;;;;;;;;;17.50;45.70;;;;;;5317087;26;80954;-39
2024/04/11 11:23:34;;;;;;;;;;;17.50;45.00;;;;;;5321617;26;81999;-39
2024/04/11 11:26:01;;;;;;;;;;;17.50;45.60;;;;;;5322687;26;81228;-38
2024/04/11 11:28:27;;;;;;;;;;;17.50;45.00;;;;;;5308982;26;81212;-38
2024/04/11 11:30:53;;;;;;;;;;;17.60;45.20;;;;;;5330202;26;81826;-39
2024/04/11 11:33:23;;;;;;;;;;;17.60;46.10;;;;;;5309502;26;80318;-39
2024/04/11 11:35:51;;;;;;;;;;;17.60;45.10;;;;;;5324551;26;80932;-39
2024/04/11 11:38:19;;;;;;;;;;;17.60;43.90;;;;;;5327106;26;82139;-39
2024/04/11 11:40:53;;;;;;;;;;;17.60;44.90;;;;;;5318630;26;81358;-39
2024/04/11 11:43:22;;;;;;;;;;;17.70;43.40;;;;;;5340044;26;81659;-39
2024/04/11 11:48:32;;;;;;;;;;;17.70;43.90;;;;;;5334787;26;80224;-38
2024/04/11 11:51:05;;;;;;;;;;;17.70;44.20;;;;;;5323853;26;81745;-38
2024/04/11 11:53:45;;;;;;;;;;;17.80;44.80;;;;;;5326130;26;82216;-38
2024/04/11 11:56:14;;;;;;;;;;;17.80;44.90;;;;;;5323024;26;81677;-39
2024/04/11 11:58:43;;;;;;;;;;;17.80;45.60;;;;;;5323393;26;80565;-39
2024/04/11 12:01:28;;;;;;;;;;;17.80;44.30;;;;;;5319631;26;80537;-39
2024/04/11 12:03:56;;;;;;;;;;;17.90;44.80;;;;;;5306875;26;80835;-38
2024/04/11 12:06:22;;;;;;;;;;;17.90;44.60;;;;;;5339529;26;82446;-39
2024/04/11 12:08:48;;;;;;;;;;;17.90;44.80;;;;;;5301284;26;80781;-39
2024/04/11 12:11:14;;;;;;;;;;;17.90;44.30;;;;;;5328406;26;81702;-39
2024/04/11 12:13:51;;;;;;;;;;;17.90;45.40;;;;;;5326648;26;81237;-39
2024/04/11 12:16:17;;;;;;;;;;;18.00;43.70;;;;;;5313599;26;80595;-39
2024/04/11 12:18:43;;;;;;;;;;;18.00;45.10;;;;;;5337398;26;82317;-39
2024/04/11 12:21:25;;;;;;;;;;;18.00;44.70;;;;;;5315693;26;80364;-39
2024/04/11 12:23:51;;;;;;;;;;;18.00;43.10;;;;;;5326840;26;81768;-39
2024/04/11 12:26:18;;;;;;;;;;;18.00;44.30;;;;;;5314710;26;80580;-39
2024/04/11 12:28:45;;;;;;;;;;;18.00;44.80;;;;;;5321207;26;81317;-39
2024/04/11 12:31:15;;;;;;;;;;;18.00;44.00;;;;;;5328469;26;83433;-39
2024/04/11 12:33:45;;;;;;;;;;;18.10;44.20;;;;;;5312949;26;82633;-39
2024/04/11 12:36:46;;;;;;;;;;;18.10;44.30;;;;;;5323276;26;81991;-39
2024/04/11 12:39:45;;;;;;;;;;;18.10;45.30;;;;;;5314399;26;80982;-38
2024/04/11 12:41:56;;;;;;;;;;;18.10;44.40;;;;;;5328018;26;81209;-39
2024/04/11 12:44:26;;;;;;;;;;;18.20;44.90;;;;;;5315991;26;82460;-39
2024/04/11 12:46:57;;;;;;;;;;;18.20;45.20;;;;;;5319766;26;81991;-39
2024/04/11 12:49:25;;;;;;;;;;;18.20;45.30;;;;;;5322670;26;79579;-39
2024/04/11 12:51:55;;;;;;;;;;;18.20;44.90;;;;;;5325431;26;80247;-39
2024/04/11 12:54:26;;;;;;;;;;;18.30;44.70;;;;;;5338987;26;80288;-39
2024/04/11 12:57:04;;;;;;;;;;;18.30;44.60;;;;;;5309668;26;81283;-39
2024/04/11 12:59:30;;;;;;;;;;;18.30;44.90;;;;;;5343697;26;81327;-38
2024/04/11 13:01:59;;;;;;;;;;;18.30;44.60;;;;;;5303530;26;80382;-39
2024/04/11 13:04:36;;;;;;;;;;;18.30;44.60;;;;;;5329804;26;80868;-39
2024/04/11 13:07:02;;;;;;;;;;;18.40;44.60;;;;;;5314822;26;82184;-40
2024/04/11 13:09:35;;;;;;;;;;;18.40;44.90;;;;;;5323615;26;80793;-38
2024/04/11 13:12:04;;;;;;;;;;;18.40;45.60;;;;;;5328043;26;81657;-38
2024/04/11 13:14:33;;;;;;;;;;;18.40;44.90;;;;;;5320352;26;81268;-38
2024/04/11 13:17:02;;;;;;;;;;;18.50;45.60;;;;;;5335464;26;80440;-38
2024/04/11 13:19:34;;;;;;;;;;;18.50;46.10;;;;;;5304345;26;80847;-38
2024/04/11 13:22:03;;;;;;;;;;;18.50;45.80;;;;;;5329148;26;82106;-38
2024/04/11 13:24:45;;;;;;;;;;;18.50;45.80;;;;;;5323309;26;82667;-39
2024/04/11 13:27:15;;;;;;;;;;;18.60;45.90;;;;;;5328086;26;81148;-39
2024/04/11 13:29:42;;;;;;;;;;;18.60;45.90;;;;;;5342454;26;80522;-39
2024/04/11 13:32:15;;;;;;;;;;;18.60;45.50;;;;;;5312308;26;81044;-39
2024/04/11 13:35:03;;;;;;;;;;;18.70;45.70;;;;;;5331800;26;81847;-39
2024/04/11 13:37:37;;;;;;;;;;;18.70;45.70;;;;;;5306530;26;80467;-39
2024/04/11 13:40:57;;;;;;;;;;;18.70;45.20;;;;;;5332338;26;81813;-39
2024/04/11 13:42:52;;;;;;;;;;;18.70;45.50;;;;;;5300187;26;81663;-39
2024/04/11 13:45:24;;;;;;;;;;;18.80;46.20;;;;;;5329888;26;80401;-39
2024/04/11 13:47:58;;;;;;;;;;;18.80;45.70;;;;;;5323083;26;81713;-39
2024/04/11 13:51:09;;;;;;;;;;;18.80;45.70;;;;;;5326001;26;80274;-38
2024/04/11 13:53:22;;;;;;;;;;;18.90;45.70;;;;;;5344605;26;80426;-39
2024/04/11 13:55:53;;;;;;;;;;;18.90;45.80;;;;;;5315669;26;81151;-39
2024/04/11 13:58:21;;;;;;;;;;;18.90;45.50;;;;;;5337203;26;80201;-39
2024/04/11 14:01:02;;;;;;;;;;;18.90;45.60;;;;;;5318863;26;81948;-39
2024/04/11 14:03:44;;;;;;;;;;;19.00;45.50;;;;;;5328921;26;81976;-39
2024/04/11 14:08:39;;;;;;;;;;;19.00;45.60;;;;;;5325307;26;80734;-39
2024/04/11 14:11:09;;;;;;;;;;;19.10;45.60;;;;;;5311950;26;80348;-39
2024/04/11 14:13:41;;;;;;;;;;;19.10;45.60;;;;;;5320683;26;81264;-39
2024/04/11 14:16:10;;;;;;;;;;;19.10;45.50;;;;;;5338330;26;82043;-39
2024/04/11 14:18:36;;;;;;;;;;;19.20;45.50;;;;;;5318696;26;81012;-39
2024/04/11 14:21:17;;;;;;;;;;;19.20;45.70;;;;;;5334737;26;81589;-38
2024/04/11 14:23:53;;;;;;;;;;;19.10;45.70;;;;;;5316179;26;82208;-39
2024/04/11 14:26:51;;;;;;;;;;;19.20;45.40;;;;;;5321436;26;80371;-39
2024/04/11 14:29:20;;;;;;;;;;;19.20;45.40;;;;;;5336457;26;81569;-39
2024/04/11 14:31:49;;;;;;;;;;;19.20;45.40;;;;;;5318541;26;79504;-39
2024/04/11 14:37:09;;;;;;;;;;;19.30;45.30;;;;;;5314484;26;80820;-39